createdAt,value
2022-11-30T00:00:04.456Z,1015.24
2022-11-30T00:01:04.448Z,1015.29
2022-11-30T00:02:04.541Z,1015.32
2022-11-30T00:03:04.539Z,1015.26
2022-11-30T00:04:04.421Z,1015.29
2022-11-30T00:05:04.405Z,1015.34
2022-11-30T00:06:04.389Z,1015.27
2022-11-30T00:07:04.384Z,1015.34
2022-11-30T00:08:04.370Z,1015.28
2022-11-30T00:09:04.370Z,1015.31
2022-11-30T00:10:04.353Z,1015.32
2022-11-30T00:11:04.334Z,1015.28
2022-11-30T00:12:04.328Z,1015.33
2022-11-30T00:13:04.318Z,1015.36
2022-11-30T00:14:04.360Z,1015.35
2022-11-30T00:15:04.290Z,1015.37
2022-11-30T00:16:04.285Z,1015.33
2022-11-30T00:17:04.351Z,1015.37
2022-11-30T00:18:04.264Z,1015.36
2022-11-30T00:19:04.245Z,1015.38
2022-11-30T00:20:04.248Z,1015.35
2022-11-30T00:21:04.229Z,1015.34
2022-11-30T00:22:04.228Z,1015.34
2022-11-30T00:23:04.210Z,1015.37
2022-11-30T00:24:04.195Z,1015.36
2022-11-30T00:25:04.192Z,1015.35
2022-11-30T00:26:04.175Z,1015.40
2022-11-30T00:27:04.158Z,1015.38
2022-11-30T00:28:04.153Z,1015.31
2022-11-30T00:29:04.136Z,1015.35
2022-11-30T00:30:04.137Z,1015.35
2022-11-30T00:31:04.172Z,1015.32
2022-11-30T00:32:04.102Z,1015.33
2022-11-30T00:33:04.201Z,1015.37
2022-11-30T00:34:04.082Z,1015.36
2022-11-30T00:35:04.087Z,1015.37
2022-11-30T00:36:04.058Z,1015.41
2022-11-30T00:37:04.050Z,1015.42
2022-11-30T00:38:04.036Z,1015.39
2022-11-30T00:39:04.028Z,1015.39
2022-11-30T00:40:04.045Z,1015.40
2022-11-30T00:41:04.010Z,1015.39
2022-11-30T00:42:03.993Z,1015.44
2022-11-30T00:43:03.986Z,1015.38
2022-11-30T00:44:03.970Z,1015.40
2022-11-30T00:45:03.974Z,1015.35
2022-11-30T00:46:04.015Z,1015.37
2022-11-30T00:47:03.941Z,1015.41
2022-11-30T00:48:03.926Z,1015.37
2022-11-30T00:49:03.918Z,1015.38
2022-11-30T00:50:03.916Z,1015.36
2022-11-30T00:51:03.898Z,1015.35
2022-11-30T00:52:03.885Z,1015.34
2022-11-30T00:53:03.878Z,1015.38
2022-11-30T00:54:03.860Z,1015.37
2022-11-30T00:55:04.485Z,1015.34
2022-11-30T00:56:03.839Z,1015.36
2022-11-30T00:57:03.833Z,1015.32
2022-11-30T00:58:03.821Z,1015.36
2022-11-30T00:59:03.811Z,1015.35
2022-11-30T01:00:03.802Z,1015.29
2022-11-30T01:01:03.812Z,1015.31
2022-11-30T01:02:03.837Z,1015.34
2022-11-30T01:03:03.769Z,1015.34
2022-11-30T01:04:03.750Z,1015.34
2022-11-30T01:05:03.764Z,1015.41
2022-11-30T01:06:03.734Z,1015.40
2022-11-30T01:07:03.720Z,1015.36
2022-11-30T01:08:03.723Z,1015.33
2022-11-30T01:09:03.699Z,1015.34
2022-11-30T01:10:03.684Z,1015.30
2022-11-30T01:11:03.688Z,1015.32
2022-11-30T01:12:03.664Z,1015.34
2022-11-30T01:13:03.655Z,1015.35
2022-11-30T01:14:03.642Z,1015.35
2022-11-30T01:15:03.634Z,1015.31
2022-11-30T01:16:03.719Z,1015.33
2022-11-30T01:17:03.611Z,1015.29
2022-11-30T01:18:03.603Z,1015.29
2022-11-30T01:19:03.587Z,1015.29
2022-11-30T01:20:03.577Z,1015.29
2022-11-30T01:21:03.578Z,1015.35
2022-11-30T01:22:03.552Z,1015.31
2022-11-30T01:23:03.548Z,1015.35
2022-11-30T01:24:03.532Z,1015.41
2022-11-30T01:25:03.523Z,1015.36
2022-11-30T01:26:03.525Z,1015.37
2022-11-30T01:27:03.504Z,1015.34
2022-11-30T01:28:03.487Z,1015.39
2022-11-30T01:29:03.480Z,1015.43
2022-11-30T01:30:03.470Z,1015.43
2022-11-30T01:31:03.645Z,1015.38
2022-11-30T01:32:03.445Z,1015.41
2022-11-30T01:33:03.436Z,1015.34
2022-11-30T01:34:03.432Z,1015.35
2022-11-30T01:35:03.415Z,1015.37
2022-11-30T01:36:03.414Z,1015.33
2022-11-30T01:37:03.397Z,1015.31
2022-11-30T01:38:03.380Z,1015.40
2022-11-30T01:39:03.372Z,1015.35
2022-11-30T01:40:03.357Z,1015.35
2022-11-30T01:41:03.361Z,1015.34
2022-11-30T01:42:03.336Z,1015.36
2022-11-30T01:43:03.328Z,1015.36
2022-11-30T01:44:03.313Z,1015.38
2022-11-30T01:45:03.305Z,1015.43
2022-11-30T01:46:03.416Z,1015.40
2022-11-30T01:47:03.286Z,1015.43
2022-11-30T01:48:03.271Z,1015.46
2022-11-30T01:49:03.262Z,1015.47
2022-11-30T01:50:03.247Z,1015.51
2022-11-30T01:51:03.250Z,1015.48
2022-11-30T01:52:03.229Z,1015.48
2022-11-30T01:53:03.219Z,1015.49
2022-11-30T01:54:03.205Z,1015.53
2022-11-30T01:55:03.197Z,1015.48
2022-11-30T01:56:03.191Z,1015.51
2022-11-30T01:57:03.179Z,1015.50
2022-11-30T01:58:03.161Z,1015.49
2022-11-30T01:59:03.156Z,1015.51
2022-11-30T02:00:03.143Z,1015.46
2022-11-30T02:01:03.163Z,1015.46
2022-11-30T02:02:03.118Z,1015.41
2022-11-30T02:03:03.113Z,1015.47
2022-11-30T02:04:03.097Z,1015.43
2022-11-30T02:05:03.089Z,1015.42
2022-11-30T02:06:03.087Z,1015.38
2022-11-30T02:07:03.068Z,1015.40
2022-11-30T02:08:03.143Z,1015.34
2022-11-30T02:09:03.047Z,1015.40
2022-11-30T02:10:03.030Z,1015.36
2022-11-30T02:11:03.031Z,1015.42
2022-11-30T02:12:03.009Z,1015.40
2022-11-30T02:13:03.005Z,1015.41
2022-11-30T02:14:02.987Z,1015.40
2022-11-30T02:15:02.981Z,1015.42
2022-11-30T02:16:03.071Z,1015.46
2022-11-30T02:17:02.962Z,1015.40
2022-11-30T02:18:02.943Z,1015.44
2022-11-30T02:19:02.934Z,1015.46
2022-11-30T02:20:02.930Z,1015.47
2022-11-30T02:21:02.915Z,1015.51
2022-11-30T02:22:02.910Z,1015.50
2022-11-30T02:23:02.893Z,1015.52
2022-11-30T02:24:02.877Z,1015.54
2022-11-30T02:25:02.876Z,1015.53
2022-11-30T02:26:02.856Z,1015.57
2022-11-30T02:27:02.862Z,1015.51
2022-11-30T02:28:02.832Z,1015.53
2022-11-30T02:29:02.828Z,1015.56
2022-11-30T02:30:02.812Z,1015.54
2022-11-30T02:31:02.875Z,1015.52
2022-11-30T02:32:02.803Z,1015.51
2022-11-30T02:33:02.819Z,1015.55
2022-11-30T02:34:02.768Z,1015.56
2022-11-30T02:35:02.762Z,1015.56
2022-11-30T02:36:02.747Z,1015.51
2022-11-30T02:37:02.752Z,1015.56
2022-11-30T02:38:02.724Z,1015.58
2022-11-30T02:39:02.718Z,1015.55
2022-11-30T02:40:02.704Z,1015.54
2022-11-30T02:41:02.699Z,1015.54
2022-11-30T02:42:02.693Z,1015.51
2022-11-30T02:43:02.677Z,1015.54
2022-11-30T02:44:02.658Z,1015.52
2022-11-30T02:45:02.697Z,1015.57
2022-11-30T02:46:02.716Z,1015.50
2022-11-30T02:47:02.641Z,1015.56
2022-11-30T02:48:02.614Z,1015.47
2022-11-30T02:49:02.610Z,1015.51
2022-11-30T02:50:02.593Z,1015.47
2022-11-30T02:51:02.587Z,1015.44
2022-11-30T02:52:02.580Z,1015.44
2022-11-30T02:53:02.564Z,1015.46
2022-11-30T02:54:02.551Z,1015.46
2022-11-30T02:55:02.542Z,1015.39
2022-11-30T02:56:02.527Z,1015.42
2022-11-30T02:57:02.533Z,1015.43
2022-11-30T02:58:02.504Z,1015.43
2022-11-30T02:59:02.500Z,1015.43
2022-11-30T03:00:02.483Z,1015.43
2022-11-30T03:01:02.531Z,1015.44
2022-11-30T03:02:02.472Z,1015.44
2022-11-30T03:03:02.490Z,1015.47
2022-11-30T03:04:02.443Z,1015.48
2022-11-30T03:05:02.433Z,1015.50
2022-11-30T03:06:02.418Z,1015.52
2022-11-30T03:07:02.421Z,1015.47
2022-11-30T03:08:02.421Z,1015.48
2022-11-30T03:09:02.400Z,1015.48
2022-11-30T03:10:08.409Z,1015.47
2022-11-30T03:11:02.366Z,1015.47
2022-11-30T03:12:02.370Z,1015.47
2022-11-30T03:13:02.341Z,1015.45
2022-11-30T03:14:02.336Z,1015.46
2022-11-30T03:15:02.328Z,1015.45
2022-11-30T03:16:02.345Z,1015.45
2022-11-30T03:17:02.308Z,1015.48
2022-11-30T03:18:02.293Z,1015.42
2022-11-30T03:19:02.278Z,1015.43
2022-11-30T03:20:02.276Z,1015.48
2022-11-30T03:21:02.253Z,1015.49
2022-11-30T03:22:02.258Z,1015.51
2022-11-30T03:23:02.235Z,1015.50
2022-11-30T03:24:02.226Z,1015.51
2022-11-30T03:25:02.214Z,1015.54
2022-11-30T03:26:02.203Z,1015.55
2022-11-30T03:27:02.198Z,1015.57
2022-11-30T03:28:02.183Z,1015.58
2022-11-30T03:29:02.169Z,1015.63
2022-11-30T03:30:02.159Z,1015.62
2022-11-30T03:31:02.244Z,1015.60
2022-11-30T03:32:02.151Z,1015.57
2022-11-30T03:33:02.124Z,1015.60
2022-11-30T03:34:02.119Z,1015.61
2022-11-30T03:35:02.100Z,1015.60
2022-11-30T03:36:02.098Z,1015.63
2022-11-30T03:37:02.090Z,1015.60
2022-11-30T03:38:02.076Z,1015.58
2022-11-30T03:39:02.059Z,1015.59
2022-11-30T03:40:02.059Z,1015.60
2022-11-30T03:41:02.035Z,1015.61
2022-11-30T03:42:02.038Z,1015.63
2022-11-30T03:43:02.014Z,1015.64
2022-11-30T03:44:02.007Z,1015.59
2022-11-30T03:45:01.998Z,1015.59
2022-11-30T03:46:02.021Z,1015.61
2022-11-30T03:47:01.981Z,1015.56
2022-11-30T03:48:01.963Z,1015.64
2022-11-30T03:49:01.948Z,1015.58
2022-11-30T03:50:01.942Z,1015.59
2022-11-30T03:51:01.930Z,1015.60
2022-11-30T03:52:01.979Z,1015.57
2022-11-30T03:53:01.904Z,1015.54
2022-11-30T03:54:01.902Z,1015.56
2022-11-30T03:55:01.882Z,1015.55
2022-11-30T03:56:01.875Z,1015.54
2022-11-30T03:57:01.859Z,1015.54
2022-11-30T03:58:01.864Z,1015.53
2022-11-30T03:59:01.837Z,1015.57
2022-11-30T04:00:01.835Z,1015.54
2022-11-30T04:01:01.816Z,1015.56
2022-11-30T04:02:01.860Z,1015.61
2022-11-30T04:03:01.870Z,1015.59
2022-11-30T04:04:01.785Z,1015.62
2022-11-30T04:05:01.773Z,1015.63
2022-11-30T04:06:01.767Z,1015.63
2022-11-30T04:07:01.749Z,1015.69
2022-11-30T04:08:01.752Z,1015.69
2022-11-30T04:09:01.728Z,1015.70
2022-11-30T04:10:08.125Z,1015.66
2022-11-30T04:11:01.713Z,1015.65
2022-11-30T04:12:01.701Z,1015.67
2022-11-30T04:13:01.695Z,1015.62
2022-11-30T04:14:01.677Z,1015.61
2022-11-30T04:15:01.664Z,1015.60
2022-11-30T04:16:01.737Z,1015.58
2022-11-30T04:17:01.640Z,1015.55
2022-11-30T04:18:01.645Z,1015.50
2022-11-30T04:19:01.617Z,1015.54
2022-11-30T04:20:01.613Z,1015.48
2022-11-30T04:21:01.595Z,1015.54
2022-11-30T04:22:01.589Z,1015.51
2022-11-30T04:23:01.582Z,1015.53
2022-11-30T04:24:01.570Z,1015.55
2022-11-30T04:25:01.555Z,1015.51
2022-11-30T04:26:01.546Z,1015.53
2022-11-30T04:27:01.531Z,1015.52
2022-11-30T04:28:01.533Z,1015.54
2022-11-30T04:29:04.425Z,1015.53
2022-11-30T04:30:01.516Z,1015.51
2022-11-30T04:31:01.525Z,1015.48
2022-11-30T04:32:01.482Z,1015.52
2022-11-30T04:33:01.475Z,1015.49
2022-11-30T04:34:01.460Z,1015.49
2022-11-30T04:35:01.442Z,1015.51
2022-11-30T04:36:01.446Z,1015.53
2022-11-30T04:37:01.420Z,1015.54
2022-11-30T04:38:01.424Z,1015.54
2022-11-30T04:39:01.402Z,1015.54
2022-11-30T04:40:01.392Z,1015.54
2022-11-30T04:41:01.380Z,1015.57
2022-11-30T04:42:01.371Z,1015.57
2022-11-30T04:43:01.366Z,1015.55
2022-11-30T04:44:01.344Z,1015.58
2022-11-30T04:45:01.336Z,1015.54
2022-11-30T04:46:01.331Z,1015.57
2022-11-30T04:47:01.363Z,1015.57
2022-11-30T04:48:01.308Z,1015.59
2022-11-30T04:49:01.294Z,1015.64
2022-11-30T04:50:01.278Z,1015.63
2022-11-30T04:51:01.274Z,1015.61
2022-11-30T04:52:01.255Z,1015.60
2022-11-30T04:53:01.261Z,1015.64
2022-11-30T04:54:01.239Z,1015.58
2022-11-30T04:55:01.228Z,1015.61
2022-11-30T04:56:01.212Z,1015.68
2022-11-30T04:57:01.206Z,1015.68
2022-11-30T04:58:01.209Z,1015.69
2022-11-30T04:59:01.183Z,1015.68
2022-11-30T05:00:01.171Z,1015.69
2022-11-30T05:01:01.160Z,1015.72
2022-11-30T05:02:01.204Z,1015.74
2022-11-30T05:03:01.156Z,1015.78
2022-11-30T05:04:01.177Z,1015.78
2022-11-30T05:05:01.116Z,1015.79
2022-11-30T05:06:01.111Z,1015.76
2022-11-30T05:07:01.097Z,1015.74
2022-11-30T05:08:01.132Z,1015.80
2022-11-30T05:09:01.084Z,1015.76
2022-11-30T05:10:01.066Z,1015.83
2022-11-30T05:11:01.050Z,1015.81
2022-11-30T05:12:01.097Z,1015.80
2022-11-30T05:13:01.032Z,1015.82
2022-11-30T05:14:01.039Z,1015.81
2022-11-30T05:15:01.009Z,1015.86
2022-11-30T05:16:01.039Z,1015.85
2022-11-30T05:17:00.990Z,1015.86
2022-11-30T05:18:00.984Z,1015.87
2022-11-30T05:19:00.973Z,1015.92
2022-11-30T05:20:00.949Z,1015.92
2022-11-30T05:21:00.942Z,1015.89
2022-11-30T05:22:00.927Z,1015.88
2022-11-30T05:23:00.920Z,1015.91
2022-11-30T05:24:00.916Z,1015.90
2022-11-30T05:25:00.898Z,1015.93
2022-11-30T05:26:00.882Z,1015.91
2022-11-30T05:27:00.876Z,1015.94
2022-11-30T05:28:00.862Z,1015.90
2022-11-30T05:29:00.868Z,1015.94
2022-11-30T05:30:00.840Z,1015.92
2022-11-30T05:31:00.891Z,1015.92
2022-11-30T05:32:00.822Z,1015.93
2022-11-30T05:33:00.812Z,1015.91
2022-11-30T05:34:00.805Z,1015.92
2022-11-30T05:35:00.792Z,1015.91
2022-11-30T05:36:04.566Z,1015.98
2022-11-30T05:37:00.777Z,1015.94
2022-11-30T05:38:00.753Z,1015.92
2022-11-30T05:39:00.754Z,1015.97
2022-11-30T05:40:00.737Z,1015.98
2022-11-30T05:41:00.724Z,1015.93
2022-11-30T05:42:00.713Z,1015.94
2022-11-30T05:43:00.701Z,1015.98
2022-11-30T05:44:00.705Z,1015.99
2022-11-30T05:45:00.685Z,1015.96
2022-11-30T05:46:00.664Z,1016.03
2022-11-30T05:47:00.671Z,1016.04
2022-11-30T05:48:00.647Z,1016.04
2022-11-30T05:49:00.667Z,1016.05
2022-11-30T05:50:00.625Z,1016.01
2022-11-30T05:51:00.639Z,1016.04
2022-11-30T05:52:00.601Z,1016.04
2022-11-30T05:53:00.596Z,1016.04
2022-11-30T05:54:00.597Z,1016.04
2022-11-30T05:55:00.572Z,1016.08
2022-11-30T05:56:00.556Z,1016.10
2022-11-30T05:57:00.553Z,1016.10
2022-11-30T05:58:00.581Z,1016.09
2022-11-30T05:59:00.527Z,1016.08
2022-11-30T06:00:00.520Z,1016.15
2022-11-30T06:01:00.508Z,1016.12
2022-11-30T06:02:00.633Z,1016.14
2022-11-30T06:03:00.780Z,1016.12
2022-11-30T06:04:04.681Z,1016.12
2022-11-30T06:05:00.478Z,1016.14
2022-11-30T06:06:00.449Z,1016.12
2022-11-30T06:07:00.440Z,1016.16
2022-11-30T06:08:00.507Z,1016.09
2022-11-30T06:09:00.419Z,1016.13
2022-11-30T06:10:00.418Z,1016.13
2022-11-30T06:11:00.400Z,1016.13
2022-11-30T06:12:00.387Z,1016.12
2022-11-30T06:13:00.381Z,1016.13
2022-11-30T06:14:00.366Z,1016.12
2022-11-30T06:15:00.390Z,1016.14
2022-11-30T06:16:00.462Z,1016.18
2022-11-30T06:17:00.331Z,1016.13
2022-11-30T06:18:00.322Z,1016.19
2022-11-30T06:19:00.311Z,1016.21
2022-11-30T06:20:00.319Z,1016.17
2022-11-30T06:21:00.288Z,1016.18
2022-11-30T06:22:00.287Z,1016.18
2022-11-30T06:23:00.265Z,1016.21
2022-11-30T06:24:00.257Z,1016.23
2022-11-30T06:25:00.260Z,1016.23
2022-11-30T06:26:00.243Z,1016.25
2022-11-30T06:27:00.219Z,1016.27
2022-11-30T06:28:00.211Z,1016.26
2022-11-30T06:29:00.197Z,1016.24
2022-11-30T06:30:00.202Z,1016.24
2022-11-30T06:31:00.178Z,1016.30
2022-11-30T06:32:00.208Z,1016.23
2022-11-30T06:33:00.172Z,1016.22
2022-11-30T06:34:00.171Z,1016.26
2022-11-30T06:35:00.148Z,1016.25
2022-11-30T06:36:00.127Z,1016.25
2022-11-30T06:37:00.112Z,1016.27
2022-11-30T06:38:00.111Z,1016.26
2022-11-30T06:39:00.089Z,1016.26
2022-11-30T06:40:07.941Z,1016.29
2022-11-30T06:41:00.074Z,1016.31
2022-11-30T06:42:00.069Z,1016.31
2022-11-30T06:43:00.044Z,1016.35
2022-11-30T06:44:00.044Z,1016.33
2022-11-30T06:45:00.034Z,1016.32
2022-11-30T06:46:00.079Z,1016.32
2022-11-30T06:47:00.001Z,1016.33
2022-11-30T06:47:59.993Z,1016.32
2022-11-30T06:48:59.980Z,1016.35
2022-11-30T06:49:59.983Z,1016.36
2022-11-30T06:50:59.958Z,1016.37
2022-11-30T06:51:59.959Z,1016.36
2022-11-30T06:52:59.943Z,1016.33
2022-11-30T06:53:59.931Z,1016.36
2022-11-30T06:54:59.925Z,1016.36
2022-11-30T06:55:59.910Z,1016.38
2022-11-30T06:56:59.903Z,1016.36
2022-11-30T06:57:59.887Z,1016.39
2022-11-30T06:58:59.887Z,1016.40
2022-11-30T06:59:59.877Z,1016.39
2022-11-30T07:00:59.902Z,1016.39
2022-11-30T07:02:05.991Z,1016.38
2022-11-30T07:02:59.834Z,1016.48
2022-11-30T07:03:59.850Z,1016.48
2022-11-30T07:04:59.807Z,1016.44
2022-11-30T07:05:59.810Z,1016.44
2022-11-30T07:06:59.785Z,1016.39
2022-11-30T07:07:59.813Z,1016.41
2022-11-30T07:08:59.762Z,1016.39
2022-11-30T07:09:59.757Z,1016.41
2022-11-30T07:10:59.753Z,1016.41
2022-11-30T07:11:59.736Z,1016.37
2022-11-30T07:12:59.719Z,1016.42
2022-11-30T07:13:59.716Z,1016.44
2022-11-30T07:14:59.697Z,1016.45
2022-11-30T07:15:59.701Z,1016.44
2022-11-30T07:16:59.678Z,1016.44
2022-11-30T07:17:59.667Z,1016.51
2022-11-30T07:18:59.654Z,1016.47
2022-11-30T07:19:59.649Z,1016.49
2022-11-30T07:20:59.640Z,1016.53
2022-11-30T07:21:59.624Z,1016.53
2022-11-30T07:22:59.611Z,1016.54
2022-11-30T07:23:59.607Z,1016.55
2022-11-30T07:24:59.590Z,1016.57
2022-11-30T07:25:59.595Z,1016.56
2022-11-30T07:26:59.569Z,1016.57
2022-11-30T07:27:59.559Z,1016.62
2022-11-30T07:28:59.545Z,1016.60
2022-11-30T07:29:59.537Z,1016.59
2022-11-30T07:30:59.535Z,1016.63
2022-11-30T07:31:59.581Z,1016.63
2022-11-30T07:32:59.500Z,1016.69
2022-11-30T07:33:59.500Z,1016.69
2022-11-30T07:34:59.479Z,1016.71
2022-11-30T07:35:59.484Z,1016.71
2022-11-30T07:36:59.466Z,1016.69
2022-11-30T07:37:59.450Z,1016.72
2022-11-30T07:38:59.440Z,1016.69
2022-11-30T07:39:59.431Z,1016.74
2022-11-30T07:40:59.449Z,1016.75
2022-11-30T07:41:59.409Z,1016.74
2022-11-30T07:42:59.393Z,1016.74
2022-11-30T07:43:59.387Z,1016.78
2022-11-30T07:44:59.914Z,1016.77
2022-11-30T07:45:59.390Z,1016.78
2022-11-30T07:46:59.349Z,1016.76
2022-11-30T07:47:59.343Z,1016.78
2022-11-30T07:48:59.336Z,1016.76
2022-11-30T07:49:59.321Z,1016.80
2022-11-30T07:50:59.329Z,1016.80
2022-11-30T07:51:59.301Z,1016.79
2022-11-30T07:52:59.284Z,1016.80
2022-11-30T07:53:59.277Z,1016.80
2022-11-30T07:54:59.261Z,1016.81
2022-11-30T07:55:59.259Z,1016.80
2022-11-30T07:56:59.250Z,1016.81
2022-11-30T07:57:59.243Z,1016.83
2022-11-30T07:58:59.219Z,1016.80
2022-11-30T07:59:59.218Z,1016.85
2022-11-30T08:00:59.270Z,1016.84
2022-11-30T08:01:59.299Z,1016.84
2022-11-30T08:02:59.176Z,1016.83
2022-11-30T08:03:59.167Z,1016.80
2022-11-30T08:04:59.400Z,1016.84
2022-11-30T08:05:59.149Z,1016.85
2022-11-30T08:06:59.151Z,1016.86
2022-11-30T08:07:59.204Z,1016.89
2022-11-30T08:08:59.119Z,1016.92
2022-11-30T08:09:59.110Z,1016.91
2022-11-30T08:10:59.104Z,1016.92
2022-11-30T08:11:59.094Z,1016.98
2022-11-30T08:12:59.067Z,1016.96
2022-11-30T08:13:59.062Z,1017.00
2022-11-30T08:15:19.338Z,1017.03
2022-11-30T08:15:59.048Z,1017.02
2022-11-30T08:16:59.136Z,1017.02
2022-11-30T08:17:59.020Z,1017.03
2022-11-30T08:18:59.002Z,1017.05
2022-11-30T08:19:59.090Z,1017.05
2022-11-30T08:20:58.984Z,1017.08
2022-11-30T08:21:58.991Z,1017.06
2022-11-30T08:22:58.960Z,1017.12
2022-11-30T08:23:59.005Z,1017.08
2022-11-30T08:24:58.938Z,1017.04
2022-11-30T08:25:58.930Z,1017.07
2022-11-30T08:26:58.922Z,1017.11
2022-11-30T08:27:58.907Z,1017.10
2022-11-30T08:28:58.902Z,1017.10
2022-11-30T08:29:58.887Z,1017.14
2022-11-30T08:30:58.921Z,1017.12
2022-11-30T08:31:58.885Z,1017.11
2022-11-30T08:32:58.851Z,1017.13
2022-11-30T08:33:58.847Z,1017.12
2022-11-30T08:34:58.826Z,1017.09
2022-11-30T08:35:58.832Z,1017.12
2022-11-30T08:36:58.815Z,1017.10
2022-11-30T08:37:58.800Z,1017.12
2022-11-30T08:38:58.783Z,1017.10
2022-11-30T08:39:58.794Z,1017.12
2022-11-30T08:40:58.765Z,1017.12
2022-11-30T08:41:58.763Z,1017.15
2022-11-30T08:42:58.740Z,1017.13
2022-11-30T08:43:58.735Z,1017.14
2022-11-30T08:44:58.979Z,1017.18
2022-11-30T08:45:58.734Z,1017.19
2022-11-30T08:46:58.771Z,1017.17
2022-11-30T08:47:58.691Z,1017.19
2022-11-30T08:49:19.950Z,1017.20
2022-11-30T08:49:58.674Z,1017.23
2022-11-30T08:50:58.653Z,1017.24
2022-11-30T08:53:03.243Z,1017.25
2022-11-30T08:53:58.631Z,1017.25
2022-11-30T08:54:58.611Z,1017.28
2022-11-30T08:55:58.605Z,1017.22
2022-11-30T08:56:58.598Z,1017.28
2022-11-30T08:57:58.582Z,1017.31
2022-11-30T08:58:58.571Z,1017.26
2022-11-30T08:59:58.560Z,1017.33
2022-11-30T09:00:58.548Z,1017.37
2022-11-30T09:01:58.543Z,1017.35
2022-11-30T09:02:58.605Z,1017.39
2022-11-30T09:03:58.691Z,1017.35
2022-11-30T09:04:58.504Z,1017.34
2022-11-30T09:05:58.491Z,1017.35
2022-11-30T09:06:58.494Z,1017.38
2022-11-30T09:07:58.551Z,1017.39
2022-11-30T09:08:58.461Z,1017.37
2022-11-30T09:09:58.446Z,1017.41
2022-11-30T09:10:58.435Z,1017.38
2022-11-30T09:11:58.437Z,1017.43
2022-11-30T09:12:58.413Z,1017.42
2022-11-30T09:13:58.405Z,1017.46
2022-11-30T09:14:58.977Z,1017.46
2022-11-30T09:15:58.430Z,1017.47
2022-11-30T09:16:58.389Z,1017.45
2022-11-30T09:18:04.391Z,1017.46
2022-11-30T09:18:58.347Z,1017.43
2022-11-30T09:19:58.343Z,1017.49
2022-11-30T09:20:58.330Z,1017.48
2022-11-30T09:21:58.322Z,1017.49
2022-11-30T09:22:58.315Z,1017.48
2022-11-30T09:23:58.299Z,1017.48
2022-11-30T09:24:58.281Z,1017.50
2022-11-30T09:25:58.278Z,1017.50
2022-11-30T09:26:58.260Z,1017.49
2022-11-30T09:27:58.263Z,1017.48
2022-11-30T09:28:58.240Z,1017.54
2022-11-30T09:29:58.234Z,1017.54
2022-11-30T09:30:58.293Z,1017.52
2022-11-30T09:31:58.210Z,1017.51
2022-11-30T09:32:58.203Z,1017.56
2022-11-30T09:33:58.188Z,1017.52
2022-11-30T09:34:58.173Z,1017.48
2022-11-30T09:35:58.170Z,1017.50
2022-11-30T09:36:58.153Z,1017.52
2022-11-30T09:37:58.153Z,1017.54
2022-11-30T09:38:58.130Z,1017.54
2022-11-30T09:39:58.123Z,1017.53
2022-11-30T09:40:58.109Z,1017.50
2022-11-30T09:41:58.102Z,1017.46
2022-11-30T09:42:58.097Z,1017.51
2022-11-30T09:43:58.092Z,1017.50
2022-11-30T09:44:58.066Z,1017.50
2022-11-30T09:45:58.107Z,1017.46
2022-11-30T09:46:58.041Z,1017.45
2022-11-30T09:47:58.046Z,1017.50
2022-11-30T09:48:58.020Z,1017.50
2022-11-30T09:49:58.015Z,1017.48
2022-11-30T09:50:57.999Z,1017.52
2022-11-30T09:51:57.990Z,1017.52
2022-11-30T09:52:57.986Z,1017.53
2022-11-30T09:53:57.978Z,1017.49
2022-11-30T09:54:57.960Z,1017.48
2022-11-30T09:55:57.949Z,1017.50
2022-11-30T09:56:57.935Z,1017.49
2022-11-30T09:57:57.936Z,1017.51
2022-11-30T09:58:57.912Z,1017.46
2022-11-30T09:59:57.908Z,1017.49
2022-11-30T10:00:57.894Z,1017.44
2022-11-30T10:01:57.972Z,1017.47
2022-11-30T10:02:57.943Z,1017.53
2022-11-30T10:03:57.862Z,1017.46
2022-11-30T10:04:57.847Z,1017.51
2022-11-30T10:05:57.845Z,1017.49
2022-11-30T10:06:57.828Z,1017.48
2022-11-30T10:07:57.879Z,1017.53
2022-11-30T10:08:57.803Z,1017.49
2022-11-30T10:10:23.841Z,1017.49
2022-11-30T10:10:57.788Z,1017.53
2022-11-30T10:11:57.775Z,1017.51
2022-11-30T10:12:57.776Z,1017.53
2022-11-30T10:13:57.757Z,1017.55
2022-11-30T10:15:00.281Z,1017.56
2022-11-30T10:15:57.802Z,1017.56
2022-11-30T10:16:57.717Z,1017.58
2022-11-30T10:17:57.723Z,1017.56
2022-11-30T10:18:57.696Z,1017.50
2022-11-30T10:19:57.688Z,1017.54
2022-11-30T10:20:57.672Z,1017.52
2022-11-30T10:21:57.665Z,1017.50
2022-11-30T10:22:57.661Z,1017.47
2022-11-30T10:23:57.645Z,1017.45
2022-11-30T10:24:57.628Z,1017.48
2022-11-30T10:25:57.622Z,1017.46
2022-11-30T10:26:57.609Z,1017.48
2022-11-30T10:27:57.615Z,1017.48
2022-11-30T10:28:57.587Z,1017.45
2022-11-30T10:29:57.580Z,1017.45
2022-11-30T10:30:57.618Z,1017.41
2022-11-30T10:31:57.561Z,1017.45
2022-11-30T10:32:57.561Z,1017.40
2022-11-30T10:33:57.535Z,1017.43
2022-11-30T10:34:57.519Z,1017.45
2022-11-30T10:35:57.515Z,1017.44
2022-11-30T10:36:57.498Z,1017.47
2022-11-30T10:37:57.489Z,1017.47
2022-11-30T10:38:57.485Z,1017.46
2022-11-30T10:39:57.521Z,1017.43
2022-11-30T10:40:57.455Z,1017.42
2022-11-30T10:41:57.450Z,1017.45
2022-11-30T10:42:57.457Z,1017.46
2022-11-30T10:43:57.436Z,1017.52
2022-11-30T10:44:57.413Z,1017.44
2022-11-30T10:45:57.455Z,1017.47
2022-11-30T10:46:57.412Z,1017.44
2022-11-30T10:47:57.383Z,1017.44
2022-11-30T10:48:57.375Z,1017.45
2022-11-30T10:49:57.359Z,1017.47
2022-11-30T10:50:57.346Z,1017.43
2022-11-30T10:51:57.340Z,1017.45
2022-11-30T10:52:57.325Z,1017.46
2022-11-30T10:53:57.344Z,1017.46
2022-11-30T10:55:03.750Z,1017.44
2022-11-30T10:55:57.299Z,1017.41
2022-11-30T10:56:57.288Z,1017.47
2022-11-30T10:57:57.275Z,1017.46
2022-11-30T10:58:57.287Z,1017.45
2022-11-30T10:59:57.250Z,1017.46
2022-11-30T11:00:57.235Z,1017.47
2022-11-30T11:01:57.252Z,1017.46
2022-11-30T11:02:57.237Z,1017.45
2022-11-30T11:03:57.278Z,1017.42
2022-11-30T11:04:57.194Z,1017.39
2022-11-30T11:05:57.186Z,1017.46
2022-11-30T11:06:57.225Z,1017.39
2022-11-30T11:08:02.776Z,1017.43
2022-11-30T11:08:57.164Z,1017.39
2022-11-30T11:09:57.143Z,1017.34
2022-11-30T11:10:57.125Z,1017.36
2022-11-30T11:11:57.121Z,1017.39
2022-11-30T11:12:57.108Z,1017.32
2022-11-30T11:13:57.108Z,1017.30
2022-11-30T11:14:57.085Z,1017.35
2022-11-30T11:15:57.159Z,1017.36
2022-11-30T11:16:57.062Z,1017.37
2022-11-30T11:17:57.055Z,1017.37
2022-11-30T11:18:57.052Z,1017.39
2022-11-30T11:19:57.033Z,1017.37
2022-11-30T11:21:01.231Z,1017.35
2022-11-30T11:21:57.020Z,1017.38
2022-11-30T11:22:56.997Z,1017.39
2022-11-30T11:23:57.000Z,1017.42
2022-11-30T11:24:56.978Z,1017.41
2022-11-30T11:25:56.970Z,1017.40
2022-11-30T11:26:56.953Z,1017.36
2022-11-30T11:27:56.946Z,1017.42
2022-11-30T11:28:56.946Z,1017.38
2022-11-30T11:29:56.925Z,1017.41
2022-11-30T11:30:56.973Z,1017.42
2022-11-30T11:31:56.903Z,1017.44
2022-11-30T11:32:56.887Z,1017.46
2022-11-30T11:33:56.891Z,1017.43
2022-11-30T11:34:56.869Z,1017.46
2022-11-30T11:35:56.858Z,1017.46
2022-11-30T11:36:56.845Z,1017.46
2022-11-30T11:37:56.837Z,1017.47
2022-11-30T11:38:56.833Z,1017.49
2022-11-30T11:39:56.818Z,1017.43
2022-11-30T11:40:56.799Z,1017.46
2022-11-30T11:41:56.793Z,1017.45
2022-11-30T11:42:56.778Z,1017.48
2022-11-30T11:43:56.787Z,1017.48
2022-11-30T11:44:56.758Z,1017.46
2022-11-30T11:45:56.845Z,1017.46
2022-11-30T11:46:56.734Z,1017.49
2022-11-30T11:47:56.728Z,1017.47
2022-11-30T11:48:56.711Z,1017.46
2022-11-30T11:49:56.715Z,1017.45
2022-11-30T11:51:12.125Z,1017.46
2022-11-30T11:51:56.696Z,1017.47
2022-11-30T11:52:56.669Z,1017.48
2022-11-30T11:53:56.715Z,1017.44
2022-11-30T11:54:56.657Z,1017.47
2022-11-30T11:55:56.642Z,1017.47
2022-11-30T11:56:56.626Z,1017.47
2022-11-30T11:57:56.617Z,1017.46
2022-11-30T11:58:56.606Z,1017.46
2022-11-30T11:59:56.615Z,1017.49
2022-11-30T12:01:16.829Z,1017.45
2022-11-30T12:01:56.585Z,1017.46
2022-11-30T12:02:56.647Z,1017.47
2022-11-30T12:03:56.598Z,1017.47
2022-11-30T12:04:56.554Z,1017.51
2022-11-30T12:05:56.534Z,1017.42